createdAt,value
2023-05-22T00:00:09.468Z,0.00
2023-05-22T00:01:09.509Z,0.00
2023-05-22T00:02:09.587Z,0.00
2023-05-22T00:03:09.579Z,0.00
2023-05-22T00:04:09.594Z,0.00
2023-05-22T00:05:09.951Z,0.00
2023-05-22T00:06:09.671Z,0.00
2023-05-22T00:07:09.700Z,0.00
2023-05-22T00:08:09.739Z,0.00
2023-05-22T00:09:09.768Z,0.00
2023-05-22T00:10:09.801Z,0.00
2023-05-22T00:11:09.835Z,0.00
2023-05-22T00:12:10.160Z,0.00
2023-05-22T00:13:09.908Z,0.00
2023-05-22T00:14:09.932Z,0.00
2023-05-22T00:15:09.964Z,0.00
2023-05-22T00:16:09.999Z,0.00
2023-05-22T00:17:10.065Z,0.00
2023-05-22T00:18:10.476Z,0.00
2023-05-22T00:21:10.172Z,0.00
2023-05-22T00:22:10.193Z,0.00
2023-05-22T00:27:10.664Z,0.00
2023-05-22T00:28:10.392Z,0.00
2023-05-22T00:29:10.448Z,0.00
2023-05-22T00:30:10.496Z,0.00
2023-05-22T00:31:10.500Z,0.00
2023-05-22T00:32:10.528Z,0.00
2023-05-22T00:34:10.717Z,0.00
2023-05-22T00:35:10.628Z,0.00
2023-05-22T00:36:10.666Z,0.00
2023-05-22T00:37:10.814Z,0.00
2023-05-22T00:38:10.744Z,0.00
2023-05-22T00:40:10.805Z,0.00
2023-05-22T00:41:11.133Z,0.00
2023-05-22T00:42:10.972Z,0.00
2023-05-22T00:43:10.903Z,0.00
2023-05-22T00:45:10.966Z,0.00
2023-05-22T00:46:11.022Z,0.00
2023-05-22T00:47:11.337Z,0.00
2023-05-22T00:48:11.065Z,0.00
2023-05-22T00:49:11.115Z,0.00
2023-05-22T00:50:11.265Z,0.00
2023-05-22T00:51:11.179Z,0.00
2023-05-22T00:52:11.202Z,0.00
2023-05-22T00:53:11.487Z,0.00
2023-05-22T00:54:11.277Z,0.00
2023-05-22T00:55:11.298Z,0.00
2023-05-22T00:56:11.333Z,0.00
2023-05-22T00:57:11.464Z,0.00
2023-05-22T00:58:11.401Z,0.00
2023-05-22T01:00:11.765Z,0.00
2023-05-22T01:01:11.513Z,0.00
2023-05-22T01:02:11.553Z,0.00
2023-05-22T01:03:11.612Z,0.00
2023-05-22T01:04:11.635Z,0.00
2023-05-22T01:05:11.632Z,0.00
2023-05-22T01:06:11.990Z,0.00
2023-05-22T01:07:11.698Z,0.00
2023-05-22T01:08:11.736Z,0.00
2023-05-22T01:09:11.763Z,0.00
2023-05-22T01:10:11.793Z,0.00
2023-05-22T01:11:11.933Z,0.00
2023-05-22T01:13:11.901Z,0.00
2023-05-22T01:14:12.236Z,0.00
2023-05-22T01:15:12.061Z,0.00
2023-05-22T01:16:12.018Z,0.00
2023-05-22T01:17:12.132Z,0.00
2023-05-22T01:18:12.079Z,0.00
2023-05-22T01:20:12.193Z,0.00
2023-05-22T01:21:12.470Z,0.00
2023-05-22T01:22:12.234Z,0.00
2023-05-22T01:23:12.224Z,0.00
2023-05-22T01:25:12.300Z,0.00
2023-05-22T01:26:12.335Z,0.00
2023-05-22T01:27:12.358Z,0.00
2023-05-22T01:28:12.693Z,0.00
2023-05-22T01:29:12.424Z,0.00
2023-05-22T01:30:12.572Z,0.00
2023-05-22T01:31:12.527Z,0.00
2023-05-22T01:32:12.557Z,0.00
2023-05-22T01:33:12.683Z,0.00
2023-05-22T01:34:12.612Z,0.00
2023-05-22T01:35:12.927Z,0.00
2023-05-22T01:36:12.660Z,0.00
2023-05-22T01:37:12.697Z,0.00
2023-05-22T01:38:12.755Z,0.00
2023-05-22T01:39:12.760Z,0.00
2023-05-22T01:40:12.797Z,0.00
2023-05-22T01:42:12.860Z,0.00
2023-05-22T01:43:13.194Z,0.00
2023-05-22T01:44:12.927Z,0.00
2023-05-22T01:45:12.961Z,0.00
2023-05-22T01:46:13.032Z,0.00
2023-05-22T01:47:13.027Z,0.00
2023-05-22T01:48:13.072Z,0.00
2023-05-22T01:49:13.090Z,0.00
2023-05-22T01:50:13.436Z,0.00
2023-05-22T01:51:13.158Z,0.00
2023-05-22T01:52:13.194Z,0.00
2023-05-22T01:53:13.227Z,0.00
2023-05-22T01:54:13.287Z,0.00
2023-05-22T01:55:13.298Z,0.00
2023-05-22T01:56:13.525Z,0.00
2023-05-22T01:57:13.965Z,0.00
2023-05-22T01:58:13.399Z,0.00
2023-05-22T02:01:13.533Z,0.00
2023-05-22T02:02:13.566Z,0.00
2023-05-22T02:05:13.631Z,0.00
2023-05-22T02:06:13.959Z,0.00
2023-05-22T02:07:13.701Z,0.00
2023-05-22T02:08:13.733Z,0.00
2023-05-22T02:11:13.953Z,0.00
2023-05-22T02:12:14.101Z,0.00
2023-05-22T02:13:13.894Z,0.00
2023-05-22T02:14:13.933Z,0.00
2023-05-22T02:15:13.952Z,0.00
2023-05-22T02:16:13.994Z,0.00
2023-05-22T02:17:14.021Z,0.00
2023-05-22T02:18:14.080Z,0.00
2023-05-22T02:19:14.447Z,0.00
2023-05-22T02:20:14.146Z,0.00
2023-05-22T02:21:14.164Z,0.00
2023-05-22T02:22:14.188Z,0.00
2023-05-22T02:23:14.228Z,0.00
2023-05-22T02:24:14.247Z,0.00
2023-05-22T02:25:14.307Z,0.00
2023-05-22T02:26:14.620Z,0.00
2023-05-22T02:27:14.402Z,0.00
2023-05-22T02:28:14.379Z,0.00
2023-05-22T02:29:14.415Z,0.00
2023-05-22T02:30:14.459Z,0.00
2023-05-22T02:31:14.927Z,0.00
2023-05-22T02:32:14.672Z,0.00
2023-05-22T02:33:14.851Z,0.00
2023-05-22T02:34:14.597Z,0.00
2023-05-22T02:36:14.656Z,0.00
2023-05-22T02:37:14.679Z,0.00
2023-05-22T02:38:14.719Z,0.00
2023-05-22T02:39:14.746Z,0.00
2023-05-22T02:40:15.088Z,0.00
2023-05-22T02:41:14.807Z,0.00
2023-05-22T02:43:15.034Z,0.00
2023-05-22T02:44:14.907Z,0.00
2023-05-22T02:45:14.951Z,0.00
2023-05-22T02:46:15.025Z,0.00
2023-05-22T02:47:15.028Z,0.00
2023-05-22T02:48:15.209Z,0.00
2023-05-22T02:49:15.088Z,0.00
2023-05-22T02:50:15.113Z,0.00
2023-05-22T02:52:15.178Z,0.00
2023-05-22T02:53:15.677Z,0.00
2023-05-22T02:54:15.239Z,0.00
2023-05-22T02:55:15.277Z,0.00
2023-05-22T02:56:15.315Z,0.00
2023-05-22T02:57:15.343Z,0.00
2023-05-22T02:58:15.368Z,0.00
2023-05-22T02:59:15.449Z,0.00
2023-05-22T03:00:15.628Z,0.00
2023-05-22T03:01:16.275Z,0.00
2023-05-22T03:02:15.896Z,0.00
2023-05-22T03:03:16.330Z,0.00
2023-05-22T03:04:15.607Z,0.00
2023-05-22T03:05:15.645Z,0.00
2023-05-22T03:06:15.937Z,0.00
2023-05-22T03:07:15.672Z,0.00
2023-05-22T03:08:15.698Z,4.00
2023-05-22T03:09:15.801Z,4.00
2023-05-22T03:10:15.786Z,4.00
2023-05-22T03:11:15.798Z,4.00
2023-05-22T03:12:16.242Z,4.00
2023-05-22T03:13:15.907Z,4.00
2023-05-22T03:14:15.948Z,8.00
2023-05-22T03:15:15.969Z,8.00
2023-05-22T03:16:16.048Z,8.00
2023-05-22T03:17:15.992Z,8.00
2023-05-22T03:18:16.028Z,12.00
2023-05-22T03:19:16.158Z,12.00
2023-05-22T03:20:16.094Z,12.00
2023-05-22T03:21:16.130Z,12.00
2023-05-22T03:22:16.160Z,16.00
2023-05-22T03:23:16.198Z,16.00
2023-05-22T03:24:16.556Z,20.00
2023-05-22T03:25:16.261Z,20.00
2023-05-22T03:26:16.296Z,24.00
2023-05-22T03:28:16.358Z,28.00
2023-05-22T03:29:16.463Z,32.00
2023-05-22T03:30:16.429Z,36.00
2023-05-22T03:31:16.785Z,40.00
2023-05-22T03:33:16.860Z,44.00
2023-05-22T03:35:16.603Z,52.00
2023-05-22T03:36:16.623Z,52.00
2023-05-22T03:37:16.654Z,60.00
2023-05-22T03:38:16.994Z,64.00
2023-05-22T03:39:16.745Z,68.00
2023-05-22T03:40:16.757Z,76.00
2023-05-22T03:41:16.788Z,80.00
2023-05-22T03:42:16.822Z,88.00
2023-05-22T03:43:16.857Z,96.00
2023-05-22T03:44:16.887Z,100.00
2023-05-22T03:45:17.272Z,108.00
2023-05-22T03:46:16.990Z,112.00
2023-05-22T03:47:17.009Z,120.00
2023-05-22T03:48:17.024Z,128.00
2023-05-22T03:49:17.052Z,136.00
2023-05-22T03:50:17.139Z,140.00
2023-05-22T03:51:19.990Z,148.00
2023-05-22T03:52:17.156Z,156.00
2023-05-22T03:53:17.186Z,164.00
2023-05-22T03:55:17.260Z,184.00
2023-05-22T03:56:17.384Z,192.00
2023-05-22T03:58:17.343Z,204.00
2023-05-22T03:59:17.681Z,216.00
2023-05-22T04:00:17.417Z,224.00
2023-05-22T04:01:17.447Z,232.00
2023-05-22T04:03:17.755Z,256.00
2023-05-22T04:04:17.551Z,268.00
2023-05-22T04:06:18.110Z,288.00
2023-05-22T04:07:17.918Z,304.00
2023-05-22T04:08:17.791Z,316.00
2023-05-22T04:09:17.734Z,328.00
2023-05-22T04:10:17.742Z,340.00
2023-05-22T04:11:17.776Z,356.00
2023-05-22T04:13:17.952Z,384.00
2023-05-22T04:14:18.116Z,400.00
2023-05-22T04:15:18.000Z,416.00
2023-05-22T04:16:17.975Z,432.00
2023-05-22T04:17:17.970Z,448.00
2023-05-22T04:18:18.007Z,464.00
2023-05-22T04:19:18.097Z,480.00
2023-05-22T04:20:18.066Z,500.00
2023-05-22T04:21:18.403Z,516.00
2023-05-22T04:22:18.129Z,532.00
2023-05-22T04:23:18.168Z,556.00
2023-05-22T04:24:18.205Z,572.00
2023-05-22T04:25:18.226Z,588.00
2023-05-22T04:26:18.259Z,608.00
2023-05-22T04:28:18.325Z,640.00
2023-05-22T04:29:18.657Z,656.00
2023-05-22T04:31:18.477Z,696.00
2023-05-22T04:32:18.510Z,716.00
2023-05-22T04:33:18.510Z,732.00
2023-05-22T04:34:18.577Z,748.00
2023-05-22T04:35:18.674Z,768.00
2023-05-22T04:37:18.629Z,808.00
2023-05-22T04:38:18.658Z,824.00
2023-05-22T04:39:18.698Z,840.00
2023-05-22T04:40:18.721Z,860.00
2023-05-22T04:41:19.663Z,876.00
2023-05-22T04:42:18.886Z,896.00
2023-05-22T04:43:19.119Z,912.00
2023-05-22T04:44:18.851Z,928.00
2023-05-22T04:45:18.902Z,944.00
2023-05-22T04:46:18.932Z,956.00
2023-05-22T04:47:18.946Z,972.00
2023-05-22T04:48:18.980Z,984.00
2023-05-22T04:49:19.050Z,996.00
2023-05-22T04:50:19.347Z,1012.00
2023-05-22T04:51:19.112Z,1024.00
2023-05-22T04:52:19.114Z,1036.00
2023-05-22T04:53:19.156Z,1044.00
2023-05-22T04:54:19.175Z,1060.00
2023-05-22T04:56:31.676Z,1080.00
2023-05-22T04:57:19.538Z,1092.00
2023-05-22T04:58:19.309Z,1100.00
2023-05-22T04:59:19.412Z,1108.00
2023-05-22T05:00:19.388Z,1120.00
2023-05-22T05:02:19.492Z,1136.00
2023-05-22T05:03:19.602Z,1144.00
2023-05-22T05:04:19.872Z,1152.00
2023-05-22T05:05:19.558Z,1156.00
2023-05-22T05:06:19.576Z,1168.00
2023-05-22T05:07:19.626Z,1172.00
2023-05-22T05:08:19.636Z,1176.00
2023-05-22T05:09:19.678Z,1188.00
2023-05-22T05:10:19.699Z,1196.00
2023-05-22T05:11:20.033Z,1208.00
2023-05-22T05:12:19.781Z,1216.00
2023-05-22T05:13:19.813Z,1224.00
2023-05-22T05:14:19.844Z,1228.00
2023-05-22T05:16:19.980Z,1248.00
2023-05-22T05:17:19.936Z,1256.00
2023-05-22T05:19:20.171Z,1276.00
2023-05-22T05:20:20.052Z,1284.00
2023-05-22T05:21:20.061Z,1292.00
2023-05-22T05:22:20.109Z,1304.00
2023-05-22T05:23:20.217Z,1312.00
2023-05-22T05:24:20.217Z,1328.00
2023-05-22T05:25:20.489Z,1336.00
2023-05-22T05:26:20.223Z,1344.00
2023-05-22T05:27:20.258Z,1356.00
2023-05-22T05:28:20.289Z,1368.00
2023-05-22T05:29:20.930Z,1376.00
2023-05-22T05:30:20.828Z,1384.00
2023-05-22T05:31:20.817Z,1400.00
2023-05-22T05:32:20.511Z,1416.00
2023-05-22T05:33:20.450Z,1420.00
2023-05-22T05:34:20.494Z,1432.00
2023-05-22T05:35:20.518Z,1440.00
2023-05-22T05:36:20.550Z,1448.00
2023-05-22T05:37:20.888Z,1476.00
2023-05-22T05:39:20.691Z,1476.00
2023-05-22T05:40:20.782Z,1512.00
2023-05-22T05:42:20.752Z,1512.00
2023-05-22T05:44:21.117Z,1512.00
2023-05-22T05:45:20.849Z,1500.00
2023-05-22T05:46:20.907Z,1524.00
2023-05-22T05:47:21.016Z,1552.00
2023-05-22T05:48:20.948Z,1568.00
2023-05-22T05:49:20.979Z,1612.00
2023-05-22T05:50:21.340Z,1624.00
2023-05-22T05:52:21.082Z,1628.00
2023-05-22T05:53:21.239Z,1772.00
2023-05-22T05:54:21.149Z,1920.00
2023-05-22T05:55:21.261Z,1936.00
2023-05-22T05:56:21.214Z,2060.00
2023-05-22T05:57:21.497Z,2152.00
2023-05-22T05:58:21.278Z,2096.00
2023-05-22T05:59:21.305Z,2328.00
2023-05-22T06:00:21.351Z,2268.00
2023-05-22T06:01:21.479Z,2252.00
2023-05-22T06:02:21.459Z,2192.00
2023-05-22T06:03:21.619Z,2212.00
2023-05-22T06:04:21.778Z,2116.00
2023-05-22T06:05:21.553Z,2088.00
2023-05-22T06:06:21.553Z,2160.00
2023-05-22T06:07:21.572Z,2200.00
2023-05-22T06:08:21.614Z,1988.00
2023-05-22T06:09:21.638Z,2092.00
2023-05-22T06:10:21.672Z,2032.00
2023-05-22T06:11:21.826Z,1884.00
2023-05-22T06:12:21.739Z,1812.00
2023-05-22T06:13:21.770Z,1676.00
2023-05-22T06:14:21.802Z,1748.00
2023-05-22T06:15:21.843Z,1888.00
2023-05-22T06:16:21.892Z,1992.00
2023-05-22T06:17:22.210Z,2068.00
2023-05-22T06:19:22.057Z,1960.00
2023-05-22T06:20:21.998Z,2020.00
2023-05-22T06:21:22.063Z,1952.00
2023-05-22T06:22:22.076Z,2068.00
2023-05-22T06:23:22.103Z,1920.00
2023-05-22T06:24:22.459Z,1888.00
2023-05-22T06:25:22.166Z,1988.00
2023-05-22T06:26:22.200Z,1888.00
2023-05-22T06:27:22.253Z,1760.00
2023-05-22T06:28:22.273Z,1820.00
2023-05-22T06:29:22.295Z,1884.00
2023-05-22T06:30:38.273Z,1808.00
2023-05-22T06:31:22.700Z,1908.00
2023-05-22T06:32:22.547Z,2048.00
2023-05-22T06:33:22.567Z,2308.00
2023-05-22T06:34:22.547Z,2200.00
2023-05-22T06:35:22.614Z,2064.00
2023-05-22T06:36:22.523Z,2052.00
2023-05-22T06:39:22.925Z,2416.00
2023-05-22T06:40:22.660Z,2488.00
2023-05-22T06:41:22.697Z,2656.00
2023-05-22T06:42:22.724Z,2532.00
2023-05-22T06:43:22.830Z,2340.00
2023-05-22T06:44:22.801Z,2484.00
2023-05-22T06:45:22.869Z,2616.00
2023-05-22T06:46:25.106Z,2708.00
2023-05-22T06:49:22.964Z,2376.00
2023-05-22T06:50:23.033Z,1996.00
2023-05-22T06:51:23.019Z,2296.00
2023-05-22T06:52:23.046Z,2392.00
2023-05-22T06:53:23.382Z,2692.00
2023-05-22T06:54:23.117Z,2948.00
2023-05-22T06:55:23.151Z,2872.00
2023-05-22T06:56:23.189Z,2620.00
2023-05-22T06:57:23.218Z,2532.00
2023-05-22T06:59:23.426Z,2060.00
2023-05-22T07:01:23.504Z,1940.00
2023-05-22T07:02:23.434Z,1996.00
2023-05-22T07:03:23.422Z,2008.00
2023-05-22T07:04:23.444Z,2484.00
2023-05-22T07:05:23.502Z,2680.00
2023-05-22T07:06:23.517Z,2520.00
2023-05-22T07:07:23.557Z,2436.00
2023-05-22T07:08:23.578Z,2600.00
2023-05-22T07:09:23.611Z,2620.00
2023-05-22T07:10:23.791Z,2496.00
2023-05-22T07:11:23.673Z,2816.00
2023-05-22T07:12:23.707Z,2856.00
2023-05-22T07:13:24.141Z,2900.00
2023-05-22T07:14:23.782Z,3284.00
2023-05-22T07:15:23.827Z,3308.00
2023-05-22T07:16:23.859Z,3496.00
2023-05-22T07:18:23.921Z,3152.00
2023-05-22T07:19:24.229Z,3264.00
2023-05-22T07:20:24.026Z,3520.00
2023-05-22T07:21:24.108Z,3700.00
2023-05-22T07:22:24.043Z,4048.00
2023-05-22T07:23:25.554Z,3624.00
2023-05-22T07:24:24.108Z,3580.00
2023-05-22T07:25:24.383Z,3472.00
2023-05-22T07:26:24.170Z,3260.00
2023-05-22T07:27:24.198Z,3608.00
2023-05-22T07:28:24.236Z,3876.00
2023-05-22T07:29:24.269Z,3724.00
2023-05-22T07:30:24.331Z,3884.00
2023-05-22T07:31:24.549Z,3940.00
2023-05-22T07:32:24.690Z,4016.00
2023-05-22T07:33:24.401Z,4144.00
2023-05-22T07:34:24.446Z,4168.00
2023-05-22T07:35:24.468Z,4160.00
2023-05-22T07:36:24.495Z,4528.00
2023-05-22T07:37:24.529Z,4564.00
2023-05-22T07:39:24.902Z,4560.00
2023-05-22T07:40:26.468Z,4444.00
2023-05-22T07:41:24.672Z,4060.00
2023-05-22T07:42:24.800Z,4100.00
2023-05-22T07:43:24.772Z,4152.00
2023-05-22T07:44:24.765Z,4124.00
2023-05-22T07:45:24.795Z,4176.00
2023-05-22T07:46:25.161Z,4648.00
2023-05-22T07:48:24.963Z,4836.00
2023-05-22T07:50:24.966Z,4948.00
2023-05-22T07:51:24.991Z,4928.00
2023-05-22T07:52:25.034Z,5136.00
2023-05-22T07:53:25.368Z,4792.00
2023-05-22T07:54:25.106Z,4936.00
2023-05-22T07:55:25.131Z,4908.00
2023-05-22T07:56:25.157Z,4836.00
2023-05-22T07:57:25.191Z,4700.00
2023-05-22T07:58:25.235Z,4848.00
2023-05-22T07:59:25.267Z,4876.00
2023-05-22T08:00:25.599Z,4520.00
2023-05-22T08:01:25.328Z,4768.00
2023-05-22T08:02:25.436Z,4648.00
2023-05-22T08:03:25.503Z,4748.00
2023-05-22T08:04:25.510Z,4808.00
2023-05-22T08:05:25.459Z,4784.00
2023-05-22T08:06:25.558Z,4824.00
2023-05-22T08:07:25.828Z,4728.00
2023-05-22T08:08:25.557Z,4692.00
2023-05-22T08:09:25.589Z,4684.00
2023-05-22T08:10:28.069Z,4584.00
2023-05-22T08:12:25.693Z,5024.00
2023-05-22T08:13:25.726Z,5088.00
2023-05-22T08:14:26.061Z,4732.00
2023-05-22T08:15:25.795Z,4764.00
2023-05-22T08:16:25.860Z,4612.00
2023-05-22T08:17:25.935Z,4452.00
2023-05-22T08:18:26.204Z,4408.00
2023-05-22T08:20:26.224Z,4200.00
2023-05-22T08:21:26.291Z,4388.00
2023-05-22T08:24:26.096Z,4592.00
2023-05-22T08:25:26.175Z,4480.00
2023-05-22T08:26:26.160Z,4848.00
2023-05-22T08:27:26.195Z,4908.00
2023-05-22T08:28:26.549Z,4636.00
2023-05-22T08:29:26.260Z,4684.00
2023-05-22T08:30:26.295Z,4504.00
2023-05-22T08:31:26.367Z,4476.00
2023-05-22T08:32:27.296Z,4516.00
2023-05-22T08:33:26.396Z,4572.00
2023-05-22T08:34:26.472Z,4352.00
2023-05-22T08:35:26.786Z,4096.00
2023-05-22T08:37:26.574Z,4852.00
2023-05-22T08:38:26.564Z,4564.00
2023-05-22T08:39:26.596Z,3784.00
2023-05-22T08:40:26.630Z,3596.00
2023-05-22T08:41:26.673Z,3532.00
2023-05-22T08:42:26.953Z,3692.00
2023-05-22T08:43:26.732Z,3772.00
2023-05-22T08:44:26.824Z,3908.00
2023-05-22T08:45:26.801Z,4268.00
2023-05-22T08:46:26.876Z,4660.00
2023-05-22T08:47:26.915Z,5284.00
2023-05-22T08:48:26.900Z,5712.00
2023-05-22T08:50:27.284Z,5672.00
2023-05-22T08:51:27.011Z,5568.00
2023-05-22T08:52:27.040Z,5672.00
2023-05-22T08:53:27.112Z,5416.00
2023-05-22T08:54:27.107Z,5164.00
2023-05-22T08:56:29.259Z,5668.00
2023-05-22T08:57:27.510Z,5124.00
2023-05-22T08:58:27.247Z,4836.00
2023-05-22T08:59:27.309Z,4704.00
2023-05-22T09:00:27.462Z,4820.00
2023-05-22T09:01:27.431Z,4972.00
2023-05-22T09:02:27.388Z,4972.00
2023-05-22T09:03:27.469Z,4716.00
2023-05-22T09:05:27.487Z,4832.00
2023-05-22T09:06:27.520Z,4904.00
2023-05-22T09:07:27.552Z,5220.00
2023-05-22T09:08:27.590Z,5676.00
2023-05-22T09:09:27.644Z,5312.00
2023-05-22T09:10:27.661Z,4972.00
2023-05-22T09:11:27.989Z,4692.00
2023-05-22T09:12:27.731Z,4740.00
2023-05-22T09:13:27.804Z,4404.00
2023-05-22T09:15:27.836Z,4396.00
2023-05-22T09:16:27.923Z,4532.00
2023-05-22T09:17:27.943Z,4620.00
2023-05-22T09:18:28.176Z,4844.00
2023-05-22T09:19:28.024Z,5248.00
2023-05-22T09:20:27.992Z,5448.00
2023-05-22T09:21:30.057Z,5804.00
2023-05-22T09:22:28.072Z,6264.00
2023-05-22T09:23:28.111Z,5984.00
2023-05-22T09:24:28.129Z,6140.00
2023-05-22T09:25:28.594Z,6384.00
2023-05-22T09:26:28.199Z,5848.00
2023-05-22T09:27:28.233Z,5428.00
2023-05-22T09:28:28.280Z,5644.00
2023-05-22T09:30:28.332Z,5156.00
2023-05-22T09:31:28.773Z,5020.00
2023-05-22T09:32:28.429Z,5152.00
2023-05-22T09:33:28.495Z,5040.00
2023-05-22T09:34:28.471Z,5356.00
2023-05-22T09:35:28.511Z,5360.00
2023-05-22T09:36:28.540Z,5356.00
2023-05-22T09:37:28.873Z,6100.00
2023-05-22T09:38:28.611Z,6016.00
2023-05-22T09:39:28.641Z,5864.00
2023-05-22T09:40:28.686Z,5236.00
2023-05-22T09:41:28.833Z,4752.00
2023-05-22T09:42:28.756Z,4612.00
2023-05-22T09:43:29.085Z,4224.00
2023-05-22T09:44:28.820Z,4596.00
2023-05-22T09:45:28.846Z,5124.00
2023-05-22T09:46:28.937Z,5916.00
2023-05-22T09:47:28.954Z,6676.00
2023-05-22T09:49:29.245Z,6512.00
2023-05-22T09:50:29.021Z,6684.00
2023-05-22T09:51:29.203Z,7084.00
2023-05-22T09:52:29.100Z,6704.00
2023-05-22T09:53:29.227Z,6716.00
2023-05-22T09:54:29.154Z,6952.00
2023-05-22T09:55:29.202Z,7392.00
2023-05-22T09:57:29.598Z,6820.00
2023-05-22T09:59:29.338Z,7268.00
2023-05-22T10:01:29.443Z,7432.00
2023-05-22T10:02:29.462Z,7560.00
2023-05-22T10:03:29.473Z,7072.00
2023-05-22T10:04:29.784Z,6964.00
2023-05-22T10:05:29.538Z,7256.00
2023-05-22T10:06:29.617Z,7620.00
2023-05-22T10:07:29.605Z,7620.00
2023-05-22T10:08:29.651Z,7228.00
2023-05-22T10:09:29.671Z,7496.00
2023-05-22T10:11:30.055Z,7404.00
2023-05-22T10:13:29.932Z,7552.00
2023-05-22T10:15:29.887Z,7472.00
2023-05-22T10:16:29.928Z,7448.00
2023-05-22T10:17:30.033Z,7556.00
2023-05-22T10:19:30.460Z,7976.00
2023-05-22T10:20:30.119Z,7616.00
2023-05-22T10:21:30.087Z,7440.00
2023-05-22T10:22:30.127Z,7088.00
2023-05-22T10:23:30.160Z,6976.00
2023-05-22T10:24:30.190Z,7560.00
2023-05-22T10:25:30.286Z,7696.00
2023-05-22T10:26:30.564Z,7568.00
2023-05-22T10:27:30.297Z,7276.00
2023-05-22T10:28:30.490Z,7256.00
2023-05-22T10:30:30.535Z,7572.00
2023-05-22T10:31:30.538Z,7672.00
2023-05-22T10:32:30.491Z,7744.00
2023-05-22T10:33:30.828Z,7748.00
2023-05-22T10:34:30.592Z,7700.00
2023-05-22T10:35:30.676Z,7896.00
2023-05-22T10:36:30.628Z,7940.00
2023-05-22T10:37:30.647Z,7820.00
2023-05-22T10:38:30.687Z,8120.00
2023-05-22T10:39:30.710Z,7924.00
2023-05-22T10:40:31.057Z,7316.00
2023-05-22T10:41:30.791Z,7412.00
2023-05-22T10:42:30.821Z,7876.00
2023-05-22T10:43:30.854Z,7680.00
2023-05-22T10:44:30.894Z,7312.00
2023-05-22T10:45:30.950Z,7112.00
2023-05-22T10:46:31.098Z,7588.00
2023-05-22T10:47:31.395Z,7988.00
2023-05-22T10:48:31.026Z,7564.00
2023-05-22T10:49:31.093Z,6596.00
2023-05-22T10:50:31.095Z,5748.00
2023-05-22T10:51:31.139Z,5580.00
2023-05-22T10:52:31.174Z,5580.00
2023-05-22T10:53:31.207Z,5832.00
2023-05-22T10:54:31.544Z,6440.00
2023-05-22T10:55:31.276Z,7188.00
2023-05-22T10:56:31.328Z,6344.00
2023-05-22T10:57:31.347Z,6312.00
2023-05-22T10:59:31.413Z,6712.00
2023-05-22T11:00:31.519Z,6184.00
2023-05-22T11:01:31.811Z,6288.00
2023-05-22T11:02:31.806Z,6684.00
2023-05-22T11:03:31.605Z,7044.00
2023-05-22T11:04:31.612Z,6968.00
2023-05-22T11:05:31.626Z,6560.00
2023-05-22T11:06:31.661Z,6448.00
2023-05-22T11:07:31.689Z,6816.00
2023-05-22T11:08:31.983Z,7448.00
2023-05-22T11:09:31.780Z,7768.00
2023-05-22T11:10:31.795Z,6960.00
2023-05-22T11:11:31.845Z,6556.00
2023-05-22T11:12:31.872Z,6768.00
2023-05-22T11:13:31.913Z,6696.00
2023-05-22T11:14:31.948Z,7248.00
2023-05-22T11:15:32.274Z,7400.00
2023-05-22T11:16:32.041Z,6736.00
2023-05-22T11:17:32.123Z,5904.00
2023-05-22T11:18:32.236Z,6192.00
2023-05-22T11:19:32.188Z,6700.00
2023-05-22T11:20:32.153Z,6972.00
2023-05-22T11:21:32.190Z,7736.00
2023-05-22T11:22:32.526Z,7952.00
2023-05-22T11:23:32.260Z,8444.00
2023-05-22T11:24:32.300Z,8648.00
2023-05-22T11:25:32.324Z,8052.00
2023-05-22T11:26:32.360Z,8028.00
2023-05-22T11:27:32.497Z,8444.00
2023-05-22T11:28:32.532Z,8424.00
2023-05-22T11:29:32.763Z,8440.00
2023-05-22T11:30:32.504Z,8532.00
2023-05-22T11:31:32.551Z,8172.00
2023-05-22T11:32:32.585Z,7812.00
2023-05-22T11:34:32.770Z,6960.00
2023-05-22T11:35:32.681Z,7172.00
2023-05-22T11:36:32.967Z,7852.00
2023-05-22T11:37:32.755Z,7632.00
2023-05-22T11:38:32.780Z,7352.00
2023-05-22T11:40:32.855Z,6760.00
2023-05-22T11:41:33.926Z,6624.00
2023-05-22T11:42:33.233Z,6304.00
2023-05-22T11:43:32.960Z,6556.00
2023-05-22T11:44:32.995Z,7220.00
2023-05-22T11:45:33.027Z,7804.00
2023-05-22T11:46:33.149Z,7732.00
2023-05-22T11:47:33.118Z,7744.00
2023-05-22T11:50:41.736Z,5488.00
2023-05-22T11:51:33.265Z,5228.00
2023-05-22T11:52:33.300Z,5104.00
2023-05-22T11:53:33.311Z,5044.00
2023-05-22T11:54:34.455Z,4856.00
2023-05-22T11:55:33.373Z,4944.00
2023-05-22T11:56:33.508Z,4996.00
2023-05-22T11:57:33.447Z,5004.00
2023-05-22T11:58:33.491Z,5004.00
2023-05-22T11:59:33.522Z,4984.00
2023-05-22T12:00:33.673Z,4972.00
2023-05-22T12:01:33.894Z,4928.00
2023-05-22T12:02:33.702Z,4896.00
2023-05-22T12:03:33.838Z,4908.00
2023-05-22T12:04:33.691Z,4932.00
2023-05-22T12:05:33.741Z,4988.00
2023-05-22T12:06:34.008Z,5044.00
2023-05-22T12:08:34.133Z,5100.00
2023-05-22T12:09:33.860Z,5064.00
2023-05-22T12:10:33.898Z,5108.00
2023-05-22T12:11:33.938Z,5236.00
2023-05-22T12:12:33.963Z,5408.00
2023-05-22T12:13:34.006Z,5632.00
2023-05-22T12:14:34.045Z,5756.00
2023-05-22T12:15:34.384Z,6156.00
2023-05-22T12:16:34.166Z,6016.00
2023-05-22T12:17:34.214Z,5432.00
2023-05-22T12:18:34.190Z,5292.00
2023-05-22T12:19:34.285Z,5596.00
2023-05-22T12:21:34.594Z,6276.00
2023-05-22T12:23:34.469Z,6296.00
2023-05-22T12:24:34.383Z,5832.00
2023-05-22T12:25:34.420Z,5428.00
2023-05-22T12:26:34.465Z,5524.00
2023-05-22T12:27:36.553Z,5648.00
2023-05-22T12:29:34.881Z,5648.00
2023-05-22T12:30:34.605Z,5920.00
2023-05-22T12:31:34.639Z,6788.00
2023-05-22T12:32:34.682Z,6620.00
2023-05-22T12:33:34.698Z,6032.00
2023-05-22T12:34:34.751Z,6296.00
2023-05-22T12:35:34.776Z,6344.00
2023-05-22T12:36:35.082Z,5824.00
2023-05-22T12:39:35.040Z,7912.00
2023-05-22T12:41:34.989Z,7032.00
2023-05-22T12:42:35.038Z,6612.00
2023-05-22T12:43:35.368Z,6520.00
2023-05-22T12:44:35.100Z,6388.00
2023-05-22T12:45:35.132Z,6068.00
2023-05-22T12:46:35.171Z,6128.00
2023-05-22T12:47:35.201Z,6268.00
2023-05-22T12:48:35.230Z,6000.00
2023-05-22T12:49:35.268Z,5692.00
2023-05-22T12:51:35.650Z,5896.00
2023-05-22T12:52:35.375Z,6360.00
2023-05-22T12:53:35.419Z,6524.00
2023-05-22T12:54:35.440Z,6632.00
2023-05-22T12:55:35.602Z,7000.00
2023-05-22T12:57:35.550Z,6580.00
2023-05-22T12:58:35.894Z,6668.00
2023-05-22T13:00:35.664Z,6164.00
2023-05-22T13:01:35.737Z,5948.00
2023-05-22T13:03:35.769Z,5860.00
2023-05-22T13:04:35.841Z,5984.00
2023-05-22T13:05:36.160Z,5996.00
2023-05-22T13:06:35.866Z,5952.00
2023-05-22T13:07:35.893Z,5952.00
2023-05-22T13:08:35.942Z,5892.00
2023-05-22T13:09:35.975Z,5912.00
2023-05-22T13:10:36.007Z,5880.00
2023-05-22T13:11:36.235Z,5968.00
2023-05-22T13:12:36.373Z,6032.00
2023-05-22T13:13:36.110Z,6116.00
2023-05-22T13:14:36.162Z,6308.00
2023-05-22T13:15:36.218Z,6552.00
2023-05-22T13:16:36.312Z,6832.00
2023-05-22T13:17:36.301Z,6936.00
2023-05-22T13:20:36.366Z,6396.00
2023-05-22T13:21:36.694Z,6504.00
2023-05-22T13:22:36.425Z,6652.00
2023-05-22T13:23:36.463Z,6912.00
2023-05-22T13:24:36.504Z,7400.00
2023-05-22T13:25:36.534Z,7180.00
2023-05-22T13:26:36.577Z,6592.00
2023-05-22T13:27:36.722Z,7276.00
2023-05-22T13:28:36.896Z,7540.00
2023-05-22T13:29:36.682Z,6560.00
2023-05-22T13:30:36.705Z,6140.00
2023-05-22T13:31:36.736Z,5904.00
2023-05-22T13:33:36.823Z,6852.00
2023-05-22T13:34:36.907Z,7012.00
2023-05-22T13:35:37.310Z,7020.00
2023-05-22T13:36:36.939Z,7032.00
2023-05-22T13:37:36.954Z,6988.00
2023-05-22T13:38:36.990Z,7000.00
2023-05-22T13:39:37.030Z,7248.00
2023-05-22T13:41:37.102Z,7888.00
2023-05-22T13:42:37.435Z,7740.00
2023-05-22T13:44:37.380Z,7100.00
2023-05-22T13:45:37.321Z,7252.00
2023-05-22T13:46:40.001Z,7588.00
2023-05-22T13:47:37.362Z,7456.00
2023-05-22T13:48:37.361Z,7460.00
2023-05-22T13:49:37.793Z,7644.00
2023-05-22T13:50:37.420Z,7868.00
2023-05-22T13:51:37.455Z,8160.00
2023-05-22T13:52:37.500Z,7856.00
2023-05-22T13:54:37.569Z,7464.00
2023-05-22T13:55:37.911Z,7556.00
2023-05-22T13:56:37.982Z,7464.00
2023-05-22T13:57:37.685Z,7240.00
2023-05-22T13:59:37.795Z,7348.00